<?xml version="1.0" encoding="UTF-8" standalone="no" ?>
<gpx xmlns="http://www.topografix.com/GPX/1/1" xmlns:xsi="http://www.w3.org/2001/XMLSchema-instance" xsi:schemaLocation="http://www.topografix.com/GPX/1/1 http://www.topografix.com/GPX/1/1/gpx.xsd" version="1.1" creator="VisuGPX - https://www.visugpx.com">
  <metadata>
    <name>Planzolles - Chabrolières</name>
    <desc><![CDATA[La Grange Cistercienne de Chabrolières par Bavancel depuis Planzolles.]]></desc>
  </metadata>
  <wpt lat="44.48616" lon="4.15338">
    <ele>482.95</ele>
    <name><![CDATA[0000061]]></name>
    <type><![CDATA[Point de départ]]></type>
  </wpt>
  <wpt lat="44.48597" lon="4.1533">
    <ele>504.88</ele>
    <name><![CDATA[0000062]]></name>
    <desc><![CDATA[<p><br /><h3>Nom: Segment: 1</h3><br />Heure de départ: 13:42 12 mars 2019<br/>Heure d'arrivée: 16:46 12 mars 2019<br/>Distance: 6,4km (03:04)<br/>Temps déplacement: 02:09<br/>Vitesse moyenne: 2,1 km/h<br/>Vitesse moyenne mouv.: 2,97 km/h<br/>Vitesse Max.: 11,91 km/h<br/>Altitude minimale: 291 m<br/>Altitude maximale: 504 m<br/>Vitesse de montée: 207,5 m/h<br/>Vitesse de descente: -258,6 m/h<br/>Gain d'altitude: 303 m<br/>Perte d'altitude: -317 m<br/>Temps de montée: 01:27<br/>Temps de descente: 01:13<br/></p>]]></desc>
    <type><![CDATA[Point d'arrivée]]></type>
  </wpt>
  <trk>
    <name><![CDATA[2019-03-12 13:42]]></name>
    <desc><![CDATA[<p>Heure de départ: 13:42 12 mars 2019<br/>Heure d'arrivée: 16:46 12 mars 2019<br/>Distance: 6,4 km (03:04)<br/>Temps déplacement: 02:09<br/>Vitesse moyenne: 2,1 km/h<br/>Vitesse moyenne mouv.: 2,98 km/h<br/>Vitesse Max.: 11,91 km/h<br/>Altitude minimale: 291 m<br/>Altitude maximale: 504 m<br/>Vitesse de montée: 157,5 m/h<br/>Vitesse de descente: -252,4 m/h<br/>Gain d'altitude: 296 m<br/>Perte d'altitude: -294 m<br/>Temps de montée: 01:52<br/>Temps de descente: 01:10<br/></p><hr align="center" width="480" style="height: 2px; width: 517px"/>]]></desc>
    <trkseg>
      <trkpt lat="44.48616" lon="4.15338">
        <ele>482.95</ele>
        <time>2019-03-12T12:42:29Z</time>
      </trkpt>
      <trkpt lat="44.48598" lon="4.15333">
        <ele>491.61</ele>
        <time>2019-03-12T12:43:17Z</time>
      </trkpt>
      <trkpt lat="44.48594" lon="4.15307">
        <ele>437.8</ele>
        <time>2019-03-12T12:44:05Z</time>
      </trkpt>
      <trkpt lat="44.48588" lon="4.15277">
        <ele>497.59</ele>
        <time>2019-03-12T12:44:19Z</time>
      </trkpt>
      <trkpt lat="44.48584" lon="4.15252">
        <ele>496.66</ele>
        <time>2019-03-12T12:44:41Z</time>
      </trkpt>
      <trkpt lat="44.48581" lon="4.15227">
        <ele>500.66</ele>
        <time>2019-03-12T12:44:57Z</time>
      </trkpt>
      <trkpt lat="44.48581" lon="4.15201">
        <ele>497.38</ele>
        <time>2019-03-12T12:45:15Z</time>
      </trkpt>
      <trkpt lat="44.48583" lon="4.15175">
        <ele>498.19</ele>
        <time>2019-03-12T12:45:31Z</time>
      </trkpt>
      <trkpt lat="44.48588" lon="4.15148">
        <ele>498.81</ele>
        <time>2019-03-12T12:45:47Z</time>
      </trkpt>
      <trkpt lat="44.48588" lon="4.15121">
        <ele>496.51</ele>
        <time>2019-03-12T12:46:11Z</time>
      </trkpt>
      <trkpt lat="44.48588" lon="4.15093">
        <ele>498.21</ele>
        <time>2019-03-12T12:46:29Z</time>
      </trkpt>
      <trkpt lat="44.4859" lon="4.15066">
        <ele>498.01</ele>
        <time>2019-03-12T12:46:47Z</time>
      </trkpt>
      <trkpt lat="44.48596" lon="4.15041">
        <ele>484.92</ele>
        <time>2019-03-12T12:47:03Z</time>
      </trkpt>
      <trkpt lat="44.48604" lon="4.15017">
        <ele>495.44</ele>
        <time>2019-03-12T12:47:21Z</time>
      </trkpt>
      <trkpt lat="44.48589" lon="4.15031">
        <ele>496.96</ele>
        <time>2019-03-12T12:47:57Z</time>
      </trkpt>
      <trkpt lat="44.48582" lon="4.15008">
        <ele>477.86</ele>
        <time>2019-03-12T12:48:27Z</time>
      </trkpt>
      <trkpt lat="44.48588" lon="4.14981">
        <ele>488.22</ele>
        <time>2019-03-12T12:48:49Z</time>
      </trkpt>
      <trkpt lat="44.48572" lon="4.14996">
        <ele>481.43</ele>
        <time>2019-03-12T12:49:55Z</time>
      </trkpt>
      <trkpt lat="44.48559" lon="4.15015">
        <ele>482.65</ele>
        <time>2019-03-12T12:50:17Z</time>
      </trkpt>
      <trkpt lat="44.48549" lon="4.15036">
        <ele>465.03</ele>
        <time>2019-03-12T12:50:39Z</time>
      </trkpt>
      <trkpt lat="44.48536" lon="4.15054">
        <ele>471.3</ele>
        <time>2019-03-12T12:51:03Z</time>
      </trkpt>
      <trkpt lat="44.48523" lon="4.15074">
        <ele>471.09</ele>
        <time>2019-03-12T12:51:23Z</time>
      </trkpt>
      <trkpt lat="44.48512" lon="4.15095">
        <ele>472.28</ele>
        <time>2019-03-12T12:51:45Z</time>
      </trkpt>
      <trkpt lat="44.48496" lon="4.15111">
        <ele>463.29</ele>
        <time>2019-03-12T12:52:05Z</time>
      </trkpt>
      <trkpt lat="44.48481" lon="4.15129">
        <ele>462.86</ele>
        <time>2019-03-12T12:52:23Z</time>
      </trkpt>
      <trkpt lat="44.4847" lon="4.1515">
        <ele>461.18</ele>
        <time>2019-03-12T12:52:41Z</time>
      </trkpt>
      <trkpt lat="44.48456" lon="4.15169">
        <ele>460.03</ele>
        <time>2019-03-12T12:53:03Z</time>
      </trkpt>
      <trkpt lat="44.48443" lon="4.15187">
        <ele>453.88</ele>
        <time>2019-03-12T12:53:23Z</time>
      </trkpt>
      <trkpt lat="44.48439" lon="4.15215">
        <ele>455.21</ele>
        <time>2019-03-12T12:53:47Z</time>
      </trkpt>
      <trkpt lat="44.48435" lon="4.15239">
        <ele>428.04</ele>
        <time>2019-03-12T12:54:07Z</time>
      </trkpt>
      <trkpt lat="44.48428" lon="4.15263">
        <ele>449.95</ele>
        <time>2019-03-12T12:54:27Z</time>
      </trkpt>
      <trkpt lat="44.48423" lon="4.15288">
        <ele>449.61</ele>
        <time>2019-03-12T12:54:45Z</time>
      </trkpt>
      <trkpt lat="44.48415" lon="4.15313">
        <ele>401.56</ele>
        <time>2019-03-12T12:55:05Z</time>
      </trkpt>
      <trkpt lat="44.48408" lon="4.15341">
        <ele>441.97</ele>
        <time>2019-03-12T12:55:57Z</time>
      </trkpt>
      <trkpt lat="44.48396" lon="4.15364">
        <ele>441.16</ele>
        <time>2019-03-12T12:56:09Z</time>
      </trkpt>
      <trkpt lat="44.4838" lon="4.15381">
        <ele>443.27</ele>
        <time>2019-03-12T12:56:25Z</time>
      </trkpt>
      <trkpt lat="44.48364" lon="4.15399">
        <ele>445.07</ele>
        <time>2019-03-12T12:56:41Z</time>
      </trkpt>
      <trkpt lat="44.48349" lon="4.15416">
        <ele>444.45</ele>
        <time>2019-03-12T12:56:57Z</time>
      </trkpt>
      <trkpt lat="44.48331" lon="4.15423">
        <ele>443.38</ele>
        <time>2019-03-12T12:57:15Z</time>
      </trkpt>
      <trkpt lat="44.48313" lon="4.15432">
        <ele>436.8</ele>
        <time>2019-03-12T12:57:35Z</time>
      </trkpt>
      <trkpt lat="44.48295" lon="4.15437">
        <ele>434.82</ele>
        <time>2019-03-12T12:57:53Z</time>
      </trkpt>
      <trkpt lat="44.48276" lon="4.15433">
        <ele>406.56</ele>
        <time>2019-03-12T12:58:11Z</time>
      </trkpt>
      <trkpt lat="44.48256" lon="4.15431">
        <ele>431</ele>
        <time>2019-03-12T12:58:31Z</time>
      </trkpt>
      <trkpt lat="44.48237" lon="4.15431">
        <ele>430.31</ele>
        <time>2019-03-12T12:58:49Z</time>
      </trkpt>
      <trkpt lat="44.48219" lon="4.15432">
        <ele>427.67</ele>
        <time>2019-03-12T12:59:09Z</time>
      </trkpt>
      <trkpt lat="44.48201" lon="4.15428">
        <ele>427.16</ele>
        <time>2019-03-12T12:59:31Z</time>
      </trkpt>
      <trkpt lat="44.48181" lon="4.15431">
        <ele>431.31</ele>
        <time>2019-03-12T12:59:53Z</time>
      </trkpt>
      <trkpt lat="44.48163" lon="4.15432">
        <ele>428.45</ele>
        <time>2019-03-12T13:00:13Z</time>
      </trkpt>
      <trkpt lat="44.48145" lon="4.15431">
        <ele>413.51</ele>
        <time>2019-03-12T13:00:35Z</time>
      </trkpt>
      <trkpt lat="44.48128" lon="4.15424">
        <ele>413.72</ele>
        <time>2019-03-12T13:00:55Z</time>
      </trkpt>
      <trkpt lat="44.48109" lon="4.15425">
        <ele>412.51</ele>
        <time>2019-03-12T13:01:25Z</time>
      </trkpt>
      <trkpt lat="44.48091" lon="4.15427">
        <ele>408.24</ele>
        <time>2019-03-12T13:01:45Z</time>
      </trkpt>
      <trkpt lat="44.48073" lon="4.15433">
        <ele>406.14</ele>
        <time>2019-03-12T13:03:09Z</time>
      </trkpt>
      <trkpt lat="44.48054" lon="4.15439">
        <ele>397.54</ele>
        <time>2019-03-12T13:05:31Z</time>
      </trkpt>
      <trkpt lat="44.48037" lon="4.15447">
        <ele>404.92</ele>
        <time>2019-03-12T13:06:01Z</time>
      </trkpt>
      <trkpt lat="44.48019" lon="4.15451">
        <ele>382.6</ele>
        <time>2019-03-12T13:06:29Z</time>
      </trkpt>
      <trkpt lat="44.47999" lon="4.15455">
        <ele>387.79</ele>
        <time>2019-03-12T13:06:47Z</time>
      </trkpt>
      <trkpt lat="44.4798" lon="4.15457">
        <ele>387.8</ele>
        <time>2019-03-12T13:07:03Z</time>
      </trkpt>
      <trkpt lat="44.47962" lon="4.15457">
        <ele>388.88</ele>
        <time>2019-03-12T13:07:23Z</time>
      </trkpt>
      <trkpt lat="44.4794" lon="4.15457">
        <ele>389.84</ele>
        <time>2019-03-12T13:07:43Z</time>
      </trkpt>
      <trkpt lat="44.47922" lon="4.15464">
        <ele>391.58</ele>
        <time>2019-03-12T13:08:03Z</time>
      </trkpt>
      <trkpt lat="44.47903" lon="4.15464">
        <ele>388.79</ele>
        <time>2019-03-12T13:08:21Z</time>
      </trkpt>
      <trkpt lat="44.47884" lon="4.15466">
        <ele>392.37</ele>
        <time>2019-03-12T13:08:39Z</time>
      </trkpt>
      <trkpt lat="44.47865" lon="4.1547">
        <ele>391.81</ele>
        <time>2019-03-12T13:08:55Z</time>
      </trkpt>
      <trkpt lat="44.47846" lon="4.15478">
        <ele>388.53</ele>
        <time>2019-03-12T13:09:17Z</time>
      </trkpt>
      <trkpt lat="44.4783" lon="4.15489">
        <ele>383.52</ele>
        <time>2019-03-12T13:09:35Z</time>
      </trkpt>
      <trkpt lat="44.47818" lon="4.15508">
        <ele>382.32</ele>
        <time>2019-03-12T13:09:49Z</time>
      </trkpt>
      <trkpt lat="44.47803" lon="4.15524">
        <ele>383.43</ele>
        <time>2019-03-12T13:10:05Z</time>
      </trkpt>
      <trkpt lat="44.47787" lon="4.15535">
        <ele>385.34</ele>
        <time>2019-03-12T13:10:25Z</time>
      </trkpt>
      <trkpt lat="44.4777" lon="4.1555">
        <ele>386.06</ele>
        <time>2019-03-12T13:10:41Z</time>
      </trkpt>
      <trkpt lat="44.47756" lon="4.15567">
        <ele>384.92</ele>
        <time>2019-03-12T13:10:57Z</time>
      </trkpt>
      <trkpt lat="44.47744" lon="4.15587">
        <ele>373.18</ele>
        <time>2019-03-12T13:11:21Z</time>
      </trkpt>
      <trkpt lat="44.47728" lon="4.15602">
        <ele>373.44</ele>
        <time>2019-03-12T13:11:43Z</time>
      </trkpt>
      <trkpt lat="44.47715" lon="4.15621">
        <ele>371.33</ele>
        <time>2019-03-12T13:12:01Z</time>
      </trkpt>
      <trkpt lat="44.47708" lon="4.15645">
        <ele>370.72</ele>
        <time>2019-03-12T13:12:21Z</time>
      </trkpt>
      <trkpt lat="44.47697" lon="4.15665">
        <ele>361.86</ele>
        <time>2019-03-12T13:12:43Z</time>
      </trkpt>
      <trkpt lat="44.4768" lon="4.15676">
        <ele>358.73</ele>
        <time>2019-03-12T13:13:05Z</time>
      </trkpt>
      <trkpt lat="44.47662" lon="4.15686">
        <ele>357.39</ele>
        <time>2019-03-12T13:13:27Z</time>
      </trkpt>
      <trkpt lat="44.47644" lon="4.15697">
        <ele>355.15</ele>
        <time>2019-03-12T13:13:47Z</time>
      </trkpt>
      <trkpt lat="44.47632" lon="4.15717">
        <ele>356.23</ele>
        <time>2019-03-12T13:14:05Z</time>
      </trkpt>
      <trkpt lat="44.47624" lon="4.1574">
        <ele>331.44</ele>
        <time>2019-03-12T13:14:21Z</time>
      </trkpt>
      <trkpt lat="44.47613" lon="4.15762">
        <ele>347.87</ele>
        <time>2019-03-12T13:14:39Z</time>
      </trkpt>
      <trkpt lat="44.47599" lon="4.1578">
        <ele>349.79</ele>
        <time>2019-03-12T13:14:57Z</time>
      </trkpt>
      <trkpt lat="44.47587" lon="4.15799">
        <ele>342.79</ele>
        <time>2019-03-12T13:15:17Z</time>
      </trkpt>
      <trkpt lat="44.47569" lon="4.15804">
        <ele>336.61</ele>
        <time>2019-03-12T13:16:03Z</time>
      </trkpt>
      <trkpt lat="44.4756" lon="4.15826">
        <ele>335.21</ele>
        <time>2019-03-12T13:16:21Z</time>
      </trkpt>
      <trkpt lat="44.47544" lon="4.15839">
        <ele>333.3</ele>
        <time>2019-03-12T13:16:43Z</time>
      </trkpt>
      <trkpt lat="44.47537" lon="4.15862">
        <ele>327.94</ele>
        <time>2019-03-12T13:17:31Z</time>
      </trkpt>
      <trkpt lat="44.47523" lon="4.15879">
        <ele>336.2</ele>
        <time>2019-03-12T13:19:39Z</time>
      </trkpt>
      <trkpt lat="44.47515" lon="4.15903">
        <ele>330.61</ele>
        <time>2019-03-12T13:20:01Z</time>
      </trkpt>
      <trkpt lat="44.47514" lon="4.15929">
        <ele>330.96</ele>
        <time>2019-03-12T13:20:39Z</time>
      </trkpt>
      <trkpt lat="44.47501" lon="4.15948">
        <ele>333.46</ele>
        <time>2019-03-12T13:20:59Z</time>
      </trkpt>
      <trkpt lat="44.47483" lon="4.15946">
        <ele>325.67</ele>
        <time>2019-03-12T13:23:11Z</time>
      </trkpt>
      <trkpt lat="44.4749" lon="4.15922">
        <ele>335.84</ele>
        <time>2019-03-12T13:23:55Z</time>
      </trkpt>
      <trkpt lat="44.475" lon="4.159">
        <ele>327.42</ele>
        <time>2019-03-12T13:24:13Z</time>
      </trkpt>
      <trkpt lat="44.47505" lon="4.15873">
        <ele>324.08</ele>
        <time>2019-03-12T13:24:35Z</time>
      </trkpt>
      <trkpt lat="44.47508" lon="4.15847">
        <ele>325.71</ele>
        <time>2019-03-12T13:24:55Z</time>
      </trkpt>
      <trkpt lat="44.47512" lon="4.1582">
        <ele>324.37</ele>
        <time>2019-03-12T13:25:13Z</time>
      </trkpt>
      <trkpt lat="44.47519" lon="4.15795">
        <ele>329.52</ele>
        <time>2019-03-12T13:25:35Z</time>
      </trkpt>
      <trkpt lat="44.47533" lon="4.15775">
        <ele>329.82</ele>
        <time>2019-03-12T13:25:57Z</time>
      </trkpt>
      <trkpt lat="44.47539" lon="4.1575">
        <ele>331.95</ele>
        <time>2019-03-12T13:26:17Z</time>
      </trkpt>
      <trkpt lat="44.47548" lon="4.15725">
        <ele>331.35</ele>
        <time>2019-03-12T13:26:35Z</time>
      </trkpt>
      <trkpt lat="44.47554" lon="4.15699">
        <ele>334.35</ele>
        <time>2019-03-12T13:27:35Z</time>
      </trkpt>
      <trkpt lat="44.47567" lon="4.15681">
        <ele>291.44</ele>
        <time>2019-03-12T13:28:45Z</time>
      </trkpt>
      <trkpt lat="44.4758" lon="4.15662">
        <ele>333.67</ele>
        <time>2019-03-12T13:35:25Z</time>
      </trkpt>
      <trkpt lat="44.47591" lon="4.15639">
        <ele>335.37</ele>
        <time>2019-03-12T13:35:41Z</time>
      </trkpt>
      <trkpt lat="44.47606" lon="4.15623">
        <ele>337.26</ele>
        <time>2019-03-12T13:36:03Z</time>
      </trkpt>
      <trkpt lat="44.47616" lon="4.156">
        <ele>338.14</ele>
        <time>2019-03-12T13:36:21Z</time>
      </trkpt>
      <trkpt lat="44.47623" lon="4.15577">
        <ele>336.63</ele>
        <time>2019-03-12T13:36:43Z</time>
      </trkpt>
      <trkpt lat="44.47631" lon="4.15552">
        <ele>335.92</ele>
        <time>2019-03-12T13:36:59Z</time>
      </trkpt>
      <trkpt lat="44.47637" lon="4.15527">
        <ele>335.4</ele>
        <time>2019-03-12T13:37:15Z</time>
      </trkpt>
      <trkpt lat="44.47645" lon="4.15503">
        <ele>336.61</ele>
        <time>2019-03-12T13:37:31Z</time>
      </trkpt>
      <trkpt lat="44.47657" lon="4.15483">
        <ele>337.5</ele>
        <time>2019-03-12T13:37:45Z</time>
      </trkpt>
      <trkpt lat="44.47674" lon="4.15467">
        <ele>340.41</ele>
        <time>2019-03-12T13:38:01Z</time>
      </trkpt>
      <trkpt lat="44.47691" lon="4.15452">
        <ele>340.4</ele>
        <time>2019-03-12T13:38:17Z</time>
      </trkpt>
      <trkpt lat="44.47705" lon="4.15435">
        <ele>342.28</ele>
        <time>2019-03-12T13:38:31Z</time>
      </trkpt>
      <trkpt lat="44.4772" lon="4.15417">
        <ele>341.75</ele>
        <time>2019-03-12T13:38:49Z</time>
      </trkpt>
      <trkpt lat="44.47732" lon="4.15396">
        <ele>343.82</ele>
        <time>2019-03-12T13:39:05Z</time>
      </trkpt>
      <trkpt lat="44.47746" lon="4.15379">
        <ele>342.93</ele>
        <time>2019-03-12T13:39:25Z</time>
      </trkpt>
      <trkpt lat="44.4776" lon="4.15362">
        <ele>344.5</ele>
        <time>2019-03-12T13:39:43Z</time>
      </trkpt>
      <trkpt lat="44.47777" lon="4.15348">
        <ele>348.71</ele>
        <time>2019-03-12T13:39:59Z</time>
      </trkpt>
      <trkpt lat="44.47796" lon="4.1534">
        <ele>350.39</ele>
        <time>2019-03-12T13:40:17Z</time>
      </trkpt>
      <trkpt lat="44.47814" lon="4.15338">
        <ele>350</ele>
        <time>2019-03-12T13:40:39Z</time>
      </trkpt>
      <trkpt lat="44.47834" lon="4.15333">
        <ele>350.14</ele>
        <time>2019-03-12T13:40:57Z</time>
      </trkpt>
      <trkpt lat="44.47852" lon="4.15325">
        <ele>351.63</ele>
        <time>2019-03-12T13:41:15Z</time>
      </trkpt>
      <trkpt lat="44.47872" lon="4.15325">
        <ele>351.77</ele>
        <time>2019-03-12T13:41:29Z</time>
      </trkpt>
      <trkpt lat="44.47889" lon="4.15318">
        <ele>357.95</ele>
        <time>2019-03-12T13:41:55Z</time>
      </trkpt>
      <trkpt lat="44.47908" lon="4.15312">
        <ele>356.6</ele>
        <time>2019-03-12T13:42:07Z</time>
      </trkpt>
      <trkpt lat="44.47926" lon="4.15321">
        <ele>362.39</ele>
        <time>2019-03-12T13:42:25Z</time>
      </trkpt>
      <trkpt lat="44.47944" lon="4.15329">
        <ele>363.21</ele>
        <time>2019-03-12T13:42:43Z</time>
      </trkpt>
      <trkpt lat="44.47963" lon="4.15333">
        <ele>367.77</ele>
        <time>2019-03-12T13:43:01Z</time>
      </trkpt>
      <trkpt lat="44.47963" lon="4.15305">
        <ele>368.95</ele>
        <time>2019-03-12T13:43:17Z</time>
      </trkpt>
      <trkpt lat="44.47969" lon="4.1528">
        <ele>363.34</ele>
        <time>2019-03-12T13:43:35Z</time>
      </trkpt>
      <trkpt lat="44.47988" lon="4.15275">
        <ele>367.74</ele>
        <time>2019-03-12T13:43:57Z</time>
      </trkpt>
      <trkpt lat="44.48007" lon="4.15282">
        <ele>369.73</ele>
        <time>2019-03-12T13:44:15Z</time>
      </trkpt>
      <trkpt lat="44.48025" lon="4.15285">
        <ele>371.97</ele>
        <time>2019-03-12T13:44:29Z</time>
      </trkpt>
      <trkpt lat="44.48043" lon="4.15288">
        <ele>369.77</ele>
        <time>2019-03-12T13:44:47Z</time>
      </trkpt>
      <trkpt lat="44.48062" lon="4.15295">
        <ele>371.59</ele>
        <time>2019-03-12T13:45:03Z</time>
      </trkpt>
      <trkpt lat="44.48081" lon="4.15289">
        <ele>371.14</ele>
        <time>2019-03-12T13:45:23Z</time>
      </trkpt>
      <trkpt lat="44.48094" lon="4.15271">
        <ele>375.28</ele>
        <time>2019-03-12T13:45:39Z</time>
      </trkpt>
      <trkpt lat="44.48107" lon="4.15252">
        <ele>373.22</ele>
        <time>2019-03-12T13:45:57Z</time>
      </trkpt>
      <trkpt lat="44.48115" lon="4.15227">
        <ele>371.23</ele>
        <time>2019-03-12T13:46:17Z</time>
      </trkpt>
      <trkpt lat="44.48123" lon="4.15204">
        <ele>368.22</ele>
        <time>2019-03-12T13:46:29Z</time>
      </trkpt>
      <trkpt lat="44.48142" lon="4.15196">
        <ele>371.15</ele>
        <time>2019-03-12T13:46:45Z</time>
      </trkpt>
      <trkpt lat="44.4816" lon="4.15201">
        <ele>371.22</ele>
        <time>2019-03-12T13:47:03Z</time>
      </trkpt>
      <trkpt lat="44.48175" lon="4.15214">
        <ele>370.45</ele>
        <time>2019-03-12T13:47:17Z</time>
      </trkpt>
      <trkpt lat="44.48169" lon="4.15187">
        <ele>370.43</ele>
        <time>2019-03-12T13:47:49Z</time>
      </trkpt>
      <trkpt lat="44.48157" lon="4.15167">
        <ele>370.54</ele>
        <time>2019-03-12T13:48:11Z</time>
      </trkpt>
      <trkpt lat="44.48146" lon="4.15146">
        <ele>368.94</ele>
        <time>2019-03-12T13:48:31Z</time>
      </trkpt>
      <trkpt lat="44.4815" lon="4.1512">
        <ele>368.85</ele>
        <time>2019-03-12T13:48:49Z</time>
      </trkpt>
      <trkpt lat="44.48166" lon="4.15107">
        <ele>367.69</ele>
        <time>2019-03-12T13:49:21Z</time>
      </trkpt>
      <trkpt lat="44.48185" lon="4.15098">
        <ele>370.14</ele>
        <time>2019-03-12T13:49:47Z</time>
      </trkpt>
      <trkpt lat="44.48198" lon="4.15081">
        <ele>368.81</ele>
        <time>2019-03-12T13:50:01Z</time>
      </trkpt>
      <trkpt lat="44.48207" lon="4.15057">
        <ele>370.19</ele>
        <time>2019-03-12T13:50:25Z</time>
      </trkpt>
      <trkpt lat="44.48198" lon="4.15033">
        <ele>367.77</ele>
        <time>2019-03-12T13:51:01Z</time>
      </trkpt>
      <trkpt lat="44.48179" lon="4.15034">
        <ele>366.89</ele>
        <time>2019-03-12T13:54:23Z</time>
      </trkpt>
      <trkpt lat="44.48186" lon="4.15057">
        <ele>358.78</ele>
        <time>2019-03-12T13:58:43Z</time>
      </trkpt>
      <trkpt lat="44.48173" lon="4.15074">
        <ele>357.42</ele>
        <time>2019-03-12T14:01:07Z</time>
      </trkpt>
      <trkpt lat="44.48156" lon="4.15065">
        <ele>360.59</ele>
        <time>2019-03-12T14:02:41Z</time>
      </trkpt>
      <trkpt lat="44.48138" lon="4.15061">
        <ele>363.36</ele>
        <time>2019-03-12T14:07:03Z</time>
      </trkpt>
      <trkpt lat="44.4813" lon="4.15076">
        <ele>369.35</ele>
        <time>2019-03-12T14:28:06Z</time>
      </trkpt>
      <trkpt lat="44.48147" lon="4.15068">
        <ele>370.36</ele>
        <time>2019-03-12T14:32:49Z</time>
      </trkpt>
      <trkpt lat="44.4818" lon="4.15073">
        <ele>365.49</ele>
        <time>2019-03-12T14:36:07Z</time>
      </trkpt>
      <trkpt lat="44.48162" lon="4.15065">
        <ele>363.15</ele>
        <time>2019-03-12T14:36:14Z</time>
      </trkpt>
      <trkpt lat="44.48162" lon="4.15039">
        <ele>372.91</ele>
        <time>2019-03-12T14:43:38Z</time>
      </trkpt>
      <trkpt lat="44.48165" lon="4.15014">
        <ele>376.07</ele>
        <time>2019-03-12T14:44:12Z</time>
      </trkpt>
      <trkpt lat="44.48147" lon="4.15015">
        <ele>380.93</ele>
        <time>2019-03-12T14:44:46Z</time>
      </trkpt>
      <trkpt lat="44.48129" lon="4.15009">
        <ele>382.1</ele>
        <time>2019-03-12T14:45:06Z</time>
      </trkpt>
      <trkpt lat="44.48125" lon="4.14982">
        <ele>384.31</ele>
        <time>2019-03-12T14:45:44Z</time>
      </trkpt>
      <trkpt lat="44.48116" lon="4.14952">
        <ele>384.57</ele>
        <time>2019-03-12T14:46:12Z</time>
      </trkpt>
      <trkpt lat="44.48108" lon="4.14927">
        <ele>386.16</ele>
        <time>2019-03-12T14:46:36Z</time>
      </trkpt>
      <trkpt lat="44.48104" lon="4.14902">
        <ele>392.21</ele>
        <time>2019-03-12T14:47:00Z</time>
      </trkpt>
      <trkpt lat="44.48089" lon="4.14889">
        <ele>395.34</ele>
        <time>2019-03-12T14:47:16Z</time>
      </trkpt>
      <trkpt lat="44.48077" lon="4.1487">
        <ele>404.09</ele>
        <time>2019-03-12T14:47:44Z</time>
      </trkpt>
      <trkpt lat="44.48083" lon="4.14846">
        <ele>405.01</ele>
        <time>2019-03-12T14:48:06Z</time>
      </trkpt>
      <trkpt lat="44.48092" lon="4.14822">
        <ele>402.15</ele>
        <time>2019-03-12T14:48:26Z</time>
      </trkpt>
      <trkpt lat="44.48095" lon="4.14795">
        <ele>406.22</ele>
        <time>2019-03-12T14:48:46Z</time>
      </trkpt>
      <trkpt lat="44.48111" lon="4.14781">
        <ele>406.62</ele>
        <time>2019-03-12T14:49:12Z</time>
      </trkpt>
      <trkpt lat="44.48128" lon="4.14769">
        <ele>410.22</ele>
        <time>2019-03-12T14:49:42Z</time>
      </trkpt>
      <trkpt lat="44.4814" lon="4.14748">
        <ele>409.24</ele>
        <time>2019-03-12T14:50:00Z</time>
      </trkpt>
      <trkpt lat="44.48137" lon="4.14722">
        <ele>412.89</ele>
        <time>2019-03-12T14:50:16Z</time>
      </trkpt>
      <trkpt lat="44.4813" lon="4.14698">
        <ele>420.83</ele>
        <time>2019-03-12T14:50:34Z</time>
      </trkpt>
      <trkpt lat="44.48126" lon="4.14723">
        <ele>409.08</ele>
        <time>2019-03-12T14:50:56Z</time>
      </trkpt>
      <trkpt lat="44.4811" lon="4.14737">
        <ele>411.47</ele>
        <time>2019-03-12T14:51:18Z</time>
      </trkpt>
      <trkpt lat="44.48091" lon="4.14736">
        <ele>412.43</ele>
        <time>2019-03-12T14:51:42Z</time>
      </trkpt>
      <trkpt lat="44.48072" lon="4.14736">
        <ele>413.01</ele>
        <time>2019-03-12T14:52:04Z</time>
      </trkpt>
      <trkpt lat="44.48056" lon="4.14752">
        <ele>417.13</ele>
        <time>2019-03-12T14:52:22Z</time>
      </trkpt>
      <trkpt lat="44.48048" lon="4.14776">
        <ele>388.78</ele>
        <time>2019-03-12T14:52:40Z</time>
      </trkpt>
      <trkpt lat="44.48032" lon="4.14791">
        <ele>413.38</ele>
        <time>2019-03-12T14:52:58Z</time>
      </trkpt>
      <trkpt lat="44.48015" lon="4.14806">
        <ele>414.57</ele>
        <time>2019-03-12T14:53:16Z</time>
      </trkpt>
      <trkpt lat="44.48" lon="4.14818">
        <ele>415.05</ele>
        <time>2019-03-12T14:53:32Z</time>
      </trkpt>
      <trkpt lat="44.47983" lon="4.14832">
        <ele>418.79</ele>
        <time>2019-03-12T14:53:52Z</time>
      </trkpt>
      <trkpt lat="44.47964" lon="4.1485">
        <ele>415.84</ele>
        <time>2019-03-12T14:54:36Z</time>
      </trkpt>
      <trkpt lat="44.47945" lon="4.14853">
        <ele>418.69</ele>
        <time>2019-03-12T14:54:54Z</time>
      </trkpt>
      <trkpt lat="44.47956" lon="4.1483">
        <ele>419.01</ele>
        <time>2019-03-12T14:55:12Z</time>
      </trkpt>
      <trkpt lat="44.47974" lon="4.14819">
        <ele>426.81</ele>
        <time>2019-03-12T14:55:38Z</time>
      </trkpt>
      <trkpt lat="44.47991" lon="4.14811">
        <ele>422.99</ele>
        <time>2019-03-12T14:55:54Z</time>
      </trkpt>
      <trkpt lat="44.48001" lon="4.14788">
        <ele>422.51</ele>
        <time>2019-03-12T14:56:12Z</time>
      </trkpt>
      <trkpt lat="44.48017" lon="4.14776">
        <ele>413.97</ele>
        <time>2019-03-12T14:56:30Z</time>
      </trkpt>
      <trkpt lat="44.48024" lon="4.14753">
        <ele>421.06</ele>
        <time>2019-03-12T14:56:46Z</time>
      </trkpt>
      <trkpt lat="44.48036" lon="4.14734">
        <ele>424.68</ele>
        <time>2019-03-12T14:57:02Z</time>
      </trkpt>
      <trkpt lat="44.48044" lon="4.14711">
        <ele>425.16</ele>
        <time>2019-03-12T14:57:24Z</time>
      </trkpt>
      <trkpt lat="44.48058" lon="4.14691">
        <ele>428.54</ele>
        <time>2019-03-12T14:57:44Z</time>
      </trkpt>
      <trkpt lat="44.48072" lon="4.14673">
        <ele>426.84</ele>
        <time>2019-03-12T14:58:06Z</time>
      </trkpt>
      <trkpt lat="44.48085" lon="4.14653">
        <ele>429.3</ele>
        <time>2019-03-12T14:58:24Z</time>
      </trkpt>
      <trkpt lat="44.48091" lon="4.14628">
        <ele>432.28</ele>
        <time>2019-03-12T14:58:42Z</time>
      </trkpt>
      <trkpt lat="44.481" lon="4.14605">
        <ele>433.89</ele>
        <time>2019-03-12T15:00:04Z</time>
      </trkpt>
      <trkpt lat="44.48112" lon="4.14585">
        <ele>435.42</ele>
        <time>2019-03-12T15:00:24Z</time>
      </trkpt>
      <trkpt lat="44.48094" lon="4.14597">
        <ele>434.64</ele>
        <time>2019-03-12T15:01:02Z</time>
      </trkpt>
      <trkpt lat="44.48077" lon="4.14608">
        <ele>441.15</ele>
        <time>2019-03-12T15:01:20Z</time>
      </trkpt>
      <trkpt lat="44.48063" lon="4.14626">
        <ele>445.44</ele>
        <time>2019-03-12T15:01:38Z</time>
      </trkpt>
      <trkpt lat="44.48045" lon="4.14639">
        <ele>439.39</ele>
        <time>2019-03-12T15:01:52Z</time>
      </trkpt>
      <trkpt lat="44.48027" lon="4.14642">
        <ele>435.21</ele>
        <time>2019-03-12T15:02:02Z</time>
      </trkpt>
      <trkpt lat="44.4801" lon="4.14648">
        <ele>437.6</ele>
        <time>2019-03-12T15:02:14Z</time>
      </trkpt>
      <trkpt lat="44.47992" lon="4.14657">
        <ele>439.93</ele>
        <time>2019-03-12T15:02:28Z</time>
      </trkpt>
      <trkpt lat="44.47979" lon="4.14678">
        <ele>455.43</ele>
        <time>2019-03-12T15:02:48Z</time>
      </trkpt>
      <trkpt lat="44.4796" lon="4.14688">
        <ele>455.81</ele>
        <time>2019-03-12T15:02:58Z</time>
      </trkpt>
      <trkpt lat="44.47941" lon="4.14692">
        <ele>449.97</ele>
        <time>2019-03-12T15:03:12Z</time>
      </trkpt>
      <trkpt lat="44.47923" lon="4.14699">
        <ele>455.82</ele>
        <time>2019-03-12T15:03:38Z</time>
      </trkpt>
      <trkpt lat="44.47906" lon="4.14687">
        <ele>447.65</ele>
        <time>2019-03-12T15:04:46Z</time>
      </trkpt>
      <trkpt lat="44.47919" lon="4.14669">
        <ele>457.13</ele>
        <time>2019-03-12T15:05:38Z</time>
      </trkpt>
      <trkpt lat="44.47906" lon="4.14647">
        <ele>454.95</ele>
        <time>2019-03-12T15:06:21Z</time>
      </trkpt>
      <trkpt lat="44.47924" lon="4.14646">
        <ele>455.58</ele>
        <time>2019-03-12T15:07:03Z</time>
      </trkpt>
      <trkpt lat="44.47938" lon="4.14595">
        <ele>456.04</ele>
        <time>2019-03-12T15:07:16Z</time>
      </trkpt>
      <trkpt lat="44.47933" lon="4.14621">
        <ele>457.96</ele>
        <time>2019-03-12T15:07:23Z</time>
      </trkpt>
      <trkpt lat="44.47946" lon="4.14602">
        <ele>462.07</ele>
        <time>2019-03-12T15:08:07Z</time>
      </trkpt>
      <trkpt lat="44.47953" lon="4.14577">
        <ele>463.11</ele>
        <time>2019-03-12T15:08:41Z</time>
      </trkpt>
      <trkpt lat="44.47959" lon="4.14552">
        <ele>466.79</ele>
        <time>2019-03-12T15:09:03Z</time>
      </trkpt>
      <trkpt lat="44.47967" lon="4.1453">
        <ele>468.61</ele>
        <time>2019-03-12T15:09:25Z</time>
      </trkpt>
      <trkpt lat="44.47983" lon="4.14513">
        <ele>475.5</ele>
        <time>2019-03-12T15:10:33Z</time>
      </trkpt>
      <trkpt lat="44.48005" lon="4.14507">
        <ele>474.94</ele>
        <time>2019-03-12T15:11:05Z</time>
      </trkpt>
      <trkpt lat="44.48023" lon="4.14498">
        <ele>478.07</ele>
        <time>2019-03-12T15:11:39Z</time>
      </trkpt>
      <trkpt lat="44.48039" lon="4.14484">
        <ele>483.07</ele>
        <time>2019-03-12T15:11:53Z</time>
      </trkpt>
      <trkpt lat="44.48053" lon="4.14468">
        <ele>476.25</ele>
        <time>2019-03-12T15:12:13Z</time>
      </trkpt>
      <trkpt lat="44.48069" lon="4.14455">
        <ele>477.21</ele>
        <time>2019-03-12T15:12:33Z</time>
      </trkpt>
      <trkpt lat="44.48082" lon="4.14435">
        <ele>477.82</ele>
        <time>2019-03-12T15:12:53Z</time>
      </trkpt>
      <trkpt lat="44.48101" lon="4.1442">
        <ele>481.27</ele>
        <time>2019-03-12T15:13:07Z</time>
      </trkpt>
      <trkpt lat="44.48107" lon="4.14396">
        <ele>476.67</ele>
        <time>2019-03-12T15:13:27Z</time>
      </trkpt>
      <trkpt lat="44.48118" lon="4.14375">
        <ele>477.57</ele>
        <time>2019-03-12T15:13:43Z</time>
      </trkpt>
      <trkpt lat="44.48124" lon="4.14351">
        <ele>475.24</ele>
        <time>2019-03-12T15:14:37Z</time>
      </trkpt>
      <trkpt lat="44.48136" lon="4.14331">
        <ele>476.47</ele>
        <time>2019-03-12T15:15:13Z</time>
      </trkpt>
      <trkpt lat="44.48158" lon="4.1434">
        <ele>472.49</ele>
        <time>2019-03-12T15:15:31Z</time>
      </trkpt>
      <trkpt lat="44.48178" lon="4.14341">
        <ele>460.1</ele>
        <time>2019-03-12T15:16:15Z</time>
      </trkpt>
      <trkpt lat="44.48195" lon="4.14354">
        <ele>466.33</ele>
        <time>2019-03-12T15:16:49Z</time>
      </trkpt>
      <trkpt lat="44.48214" lon="4.14353">
        <ele>463.44</ele>
        <time>2019-03-12T15:17:21Z</time>
      </trkpt>
      <trkpt lat="44.48231" lon="4.14367">
        <ele>464.51</ele>
        <time>2019-03-12T15:17:47Z</time>
      </trkpt>
      <trkpt lat="44.48249" lon="4.14367">
        <ele>466.11</ele>
        <time>2019-03-12T15:18:03Z</time>
      </trkpt>
      <trkpt lat="44.48265" lon="4.14381">
        <ele>462.12</ele>
        <time>2019-03-12T15:18:25Z</time>
      </trkpt>
      <trkpt lat="44.48283" lon="4.14392">
        <ele>460.07</ele>
        <time>2019-03-12T15:18:45Z</time>
      </trkpt>
      <trkpt lat="44.48303" lon="4.14393">
        <ele>457.62</ele>
        <time>2019-03-12T15:19:05Z</time>
      </trkpt>
      <trkpt lat="44.4832" lon="4.14381">
        <ele>457.08</ele>
        <time>2019-03-12T15:19:23Z</time>
      </trkpt>
      <trkpt lat="44.48338" lon="4.14382">
        <ele>456.25</ele>
        <time>2019-03-12T15:19:49Z</time>
      </trkpt>
      <trkpt lat="44.48358" lon="4.1438">
        <ele>459.29</ele>
        <time>2019-03-12T15:20:05Z</time>
      </trkpt>
      <trkpt lat="44.4837" lon="4.14399">
        <ele>459.91</ele>
        <time>2019-03-12T15:20:23Z</time>
      </trkpt>
      <trkpt lat="44.48389" lon="4.14399">
        <ele>450.49</ele>
        <time>2019-03-12T15:20:59Z</time>
      </trkpt>
      <trkpt lat="44.48407" lon="4.14395">
        <ele>448.63</ele>
        <time>2019-03-12T15:21:19Z</time>
      </trkpt>
      <trkpt lat="44.48427" lon="4.14397">
        <ele>445.97</ele>
        <time>2019-03-12T15:21:39Z</time>
      </trkpt>
      <trkpt lat="44.48446" lon="4.14398">
        <ele>443.11</ele>
        <time>2019-03-12T15:21:59Z</time>
      </trkpt>
      <trkpt lat="44.48464" lon="4.14396">
        <ele>435.05</ele>
        <time>2019-03-12T15:22:41Z</time>
      </trkpt>
      <trkpt lat="44.48471" lon="4.1437">
        <ele>435.8</ele>
        <time>2019-03-12T15:23:03Z</time>
      </trkpt>
      <trkpt lat="44.48482" lon="4.1435">
        <ele>428.55</ele>
        <time>2019-03-12T15:23:37Z</time>
      </trkpt>
      <trkpt lat="44.48494" lon="4.14371">
        <ele>425.5</ele>
        <time>2019-03-12T15:27:19Z</time>
      </trkpt>
      <trkpt lat="44.485" lon="4.14395">
        <ele>437.34</ele>
        <time>2019-03-12T15:27:45Z</time>
      </trkpt>
      <trkpt lat="44.4851" lon="4.14417">
        <ele>439.23</ele>
        <time>2019-03-12T15:28:05Z</time>
      </trkpt>
      <trkpt lat="44.4852" lon="4.14439">
        <ele>445.24</ele>
        <time>2019-03-12T15:28:45Z</time>
      </trkpt>
      <trkpt lat="44.48525" lon="4.14465">
        <ele>449.19</ele>
        <time>2019-03-12T15:29:11Z</time>
      </trkpt>
      <trkpt lat="44.48531" lon="4.14489">
        <ele>443.5</ele>
        <time>2019-03-12T15:29:31Z</time>
      </trkpt>
      <trkpt lat="44.48536" lon="4.14514">
        <ele>453.29</ele>
        <time>2019-03-12T15:29:51Z</time>
      </trkpt>
      <trkpt lat="44.48547" lon="4.14534">
        <ele>457.17</ele>
        <time>2019-03-12T15:30:11Z</time>
      </trkpt>
      <trkpt lat="44.48557" lon="4.14555">
        <ele>452.26</ele>
        <time>2019-03-12T15:30:33Z</time>
      </trkpt>
      <trkpt lat="44.4857" lon="4.14576">
        <ele>462.75</ele>
        <time>2019-03-12T15:30:59Z</time>
      </trkpt>
      <trkpt lat="44.48583" lon="4.14593">
        <ele>460.66</ele>
        <time>2019-03-12T15:31:19Z</time>
      </trkpt>
      <trkpt lat="44.48597" lon="4.14609">
        <ele>466.67</ele>
        <time>2019-03-12T15:32:25Z</time>
      </trkpt>
      <trkpt lat="44.48614" lon="4.14619">
        <ele>463.41</ele>
        <time>2019-03-12T15:33:31Z</time>
      </trkpt>
      <trkpt lat="44.48631" lon="4.1463">
        <ele>462.63</ele>
        <time>2019-03-12T15:33:51Z</time>
      </trkpt>
      <trkpt lat="44.48636" lon="4.14655">
        <ele>466.75</ele>
        <time>2019-03-12T15:34:19Z</time>
      </trkpt>
      <trkpt lat="44.4862" lon="4.14669">
        <ele>450.22</ele>
        <time>2019-03-12T15:34:37Z</time>
      </trkpt>
      <trkpt lat="44.48603" lon="4.14681">
        <ele>462.21</ele>
        <time>2019-03-12T15:34:57Z</time>
      </trkpt>
      <trkpt lat="44.48597" lon="4.14706">
        <ele>464.93</ele>
        <time>2019-03-12T15:35:29Z</time>
      </trkpt>
      <trkpt lat="44.48583" lon="4.14723">
        <ele>466.91</ele>
        <time>2019-03-12T15:35:51Z</time>
      </trkpt>
      <trkpt lat="44.48574" lon="4.14748">
        <ele>471.81</ele>
        <time>2019-03-12T15:36:13Z</time>
      </trkpt>
      <trkpt lat="44.48574" lon="4.14775">
        <ele>479.1</ele>
        <time>2019-03-12T15:36:37Z</time>
      </trkpt>
      <trkpt lat="44.48579" lon="4.148">
        <ele>474.31</ele>
        <time>2019-03-12T15:36:55Z</time>
      </trkpt>
      <trkpt lat="44.48579" lon="4.14827">
        <ele>473.69</ele>
        <time>2019-03-12T15:37:15Z</time>
      </trkpt>
      <trkpt lat="44.48576" lon="4.14852">
        <ele>472.5</ele>
        <time>2019-03-12T15:37:33Z</time>
      </trkpt>
      <trkpt lat="44.48575" lon="4.1488">
        <ele>474.61</ele>
        <time>2019-03-12T15:37:53Z</time>
      </trkpt>
      <trkpt lat="44.48579" lon="4.14906">
        <ele>477.74</ele>
        <time>2019-03-12T15:38:15Z</time>
      </trkpt>
      <trkpt lat="44.48581" lon="4.14932">
        <ele>477.22</ele>
        <time>2019-03-12T15:38:37Z</time>
      </trkpt>
      <trkpt lat="44.48589" lon="4.14961">
        <ele>484.01</ele>
        <time>2019-03-12T15:39:43Z</time>
      </trkpt>
      <trkpt lat="44.48584" lon="4.14985">
        <ele>483.43</ele>
        <time>2019-03-12T15:40:07Z</time>
      </trkpt>
      <trkpt lat="44.48582" lon="4.15011">
        <ele>486.34</ele>
        <time>2019-03-12T15:40:25Z</time>
      </trkpt>
      <trkpt lat="44.48582" lon="4.15036">
        <ele>489.23</ele>
        <time>2019-03-12T15:40:49Z</time>
      </trkpt>
      <trkpt lat="44.48596" lon="4.15018">
        <ele>480.1</ele>
        <time>2019-03-12T15:41:13Z</time>
      </trkpt>
      <trkpt lat="44.48593" lon="4.15043">
        <ele>496.18</ele>
        <time>2019-03-12T15:41:49Z</time>
      </trkpt>
      <trkpt lat="44.48587" lon="4.15067">
        <ele>495.88</ele>
        <time>2019-03-12T15:42:07Z</time>
      </trkpt>
      <trkpt lat="44.48585" lon="4.15093">
        <ele>496.82</ele>
        <time>2019-03-12T15:42:25Z</time>
      </trkpt>
      <trkpt lat="44.48586" lon="4.15119">
        <ele>493.8</ele>
        <time>2019-03-12T15:42:43Z</time>
      </trkpt>
      <trkpt lat="44.48584" lon="4.15148">
        <ele>478.41</ele>
        <time>2019-03-12T15:44:01Z</time>
      </trkpt>
      <trkpt lat="44.48582" lon="4.15174">
        <ele>497.81</ele>
        <time>2019-03-12T15:44:19Z</time>
      </trkpt>
      <trkpt lat="44.4858" lon="4.15202">
        <ele>497.42</ele>
        <time>2019-03-12T15:44:41Z</time>
      </trkpt>
      <trkpt lat="44.48584" lon="4.15227">
        <ele>401.84</ele>
        <time>2019-03-12T15:45:15Z</time>
      </trkpt>
      <trkpt lat="44.48581" lon="4.15253">
        <ele>490.75</ele>
        <time>2019-03-12T15:45:33Z</time>
      </trkpt>
      <trkpt lat="44.48588" lon="4.1528">
        <ele>474.88</ele>
        <time>2019-03-12T15:45:49Z</time>
      </trkpt>
      <trkpt lat="44.48593" lon="4.15304">
        <ele>473.34</ele>
        <time>2019-03-12T15:46:23Z</time>
      </trkpt>
      <trkpt lat="44.48597" lon="4.1533">
        <ele>504.88</ele>
        <time>2019-03-12T15:46:41Z</time>
      </trkpt>
    </trkseg>
  </trk>
</gpx>